sensor_id;sensor_type;location;lat;lon;timestamp;pressure;altitude;pressure_sealevel;temperature;humidity
70302;BME280;57706;56.326;43.882;2022-09-09T00:05:09;101002.28;;;7.36;78.99
70302;BME280;57706;56.326;43.882;2022-09-09T00:07:51;101006.94;;;7.33;79.24
70302;BME280;57706;56.326;43.882;2022-09-09T00:10:28;101000.53;;;7.25;79.74
70302;BME280;57706;56.326;43.882;2022-09-09T00:21:08;101011.78;;;7.05;80.40
70302;BME280;57706;56.326;43.882;2022-09-09T00:23:45;101018.81;;;7.04;80.37
70302;BME280;57706;56.326;43.882;2022-09-09T00:26:32;101024.25;;;7.01;80.67
70302;BME280;57706;56.326;43.882;2022-09-09T00:31:34;101028.69;;;7.00;80.76
70302;BME280;57706;56.326;43.882;2022-09-09T00:34:15;101033.06;;;7.00;80.82
70302;BME280;57706;56.326;43.882;2022-09-09T00:36:43;101034.03;;;6.99;80.45
70302;BME280;57706;56.326;43.882;2022-09-09T00:42:13;101030.91;;;7.05;80.54
70302;BME280;57706;56.326;43.882;2022-09-09T00:57:58;101042.88;;;7.19;80.21
70302;BME280;57706;56.326;43.882;2022-09-09T01:00:27;101044.09;;;7.15;80.29
70302;BME280;57706;56.326;43.882;2022-09-09T01:03:19;101052.50;;;7.19;79.96
70302;BME280;57706;56.326;43.882;2022-09-09T01:10:54;101052.50;;;7.19;79.62
70302;BME280;57706;56.326;43.882;2022-09-09T01:13:28;101054.16;;;7.20;79.92
70302;BME280;57706;56.326;43.882;2022-09-09T01:16:03;101059.03;;;7.24;79.24
70302;BME280;57706;56.326;43.882;2022-09-09T01:18:36;101060.03;;;7.33;79.34
70302;BME280;57706;56.326;43.882;2022-09-09T01:24:27;101062.53;;;7.35;79.31
70302;BME280;57706;56.326;43.882;2022-09-09T01:27:10;101062.28;;;7.38;79.11
70302;BME280;57706;56.326;43.882;2022-09-09T01:29:37;101060.03;;;7.33;79.06
70302;BME280;57706;56.326;43.882;2022-09-09T01:32:41;101065.03;;;7.36;79.07
70302;BME280;57706;56.326;43.882;2022-09-09T01:35:12;101066.13;;;7.34;78.33
70302;BME280;57706;56.326;43.882;2022-09-09T01:37:40;101070.50;;;7.33;78.78
70302;BME280;57706;56.326;43.882;2022-09-09T01:40:07;101065.44;;;7.32;78.78
70302;BME280;57706;56.326;43.882;2022-09-09T01:42:36;101078.72;;;7.28;79.02
70302;BME280;57706;56.326;43.882;2022-09-09T01:45:21;101079.78;;;7.26;79.07
70302;BME280;57706;56.326;43.882;2022-09-09T01:47:47;101080.66;;;7.26;78.91
70302;BME280;57706;56.326;43.882;2022-09-09T01:50:28;101081.97;;;7.21;78.90
70302;BME280;57706;56.326;43.882;2022-09-09T01:52:59;101073.44;;;7.19;79.05
70302;BME280;57706;56.326;43.882;2022-09-09T01:55:38;101086.63;;;7.17;79.17
70302;BME280;57706;56.326;43.882;2022-09-09T01:58:22;101093.97;;;7.12;79.47
70302;BME280;57706;56.326;43.882;2022-09-09T02:04:06;101097.69;;;6.98;79.80
70302;BME280;57706;56.326;43.882;2022-09-09T02:06:37;101092.47;;;6.98;79.75
70302;BME280;57706;56.326;43.882;2022-09-09T02:09:19;101094.59;;;6.93;79.62
70302;BME280;57706;56.326;43.882;2022-09-09T02:11:47;101098.19;;;6.92;79.66
70302;BME280;57706;56.326;43.882;2022-09-09T02:14:25;101099.13;;;6.91;80.06
70302;BME280;57706;56.326;43.882;2022-09-09T02:17:01;101097.22;;;6.93;79.83
70302;BME280;57706;56.326;43.882;2022-09-09T02:19:52;101106.53;;;6.85;79.72
70302;BME280;57706;56.326;43.882;2022-09-09T02:22:33;101109.13;;;6.85;79.79
70302;BME280;57706;56.326;43.882;2022-09-09T02:25:04;101111.25;;;6.80;79.75
70302;BME280;57706;56.326;43.882;2022-09-09T02:27:31;101114.84;;;6.79;79.80
70302;BME280;57706;56.326;43.882;2022-09-09T02:29:59;101122.66;;;6.68;79.91
70302;BME280;57706;56.326;43.882;2022-09-09T02:32:48;101118.88;;;6.72;79.94
70302;BME280;57706;56.326;43.882;2022-09-09T02:35:34;101127.66;;;6.71;79.66
70302;BME280;57706;56.326;43.882;2022-09-09T02:38:06;101132.88;;;6.71;79.69
70302;BME280;57706;56.326;43.882;2022-09-09T02:40:52;101127.66;;;6.71;79.47
70302;BME280;57706;56.326;43.882;2022-09-09T02:43:18;101135.25;;;6.63;79.71
70302;BME280;57706;56.326;43.882;2022-09-09T02:48:52;101142.59;;;6.57;79.80
70302;BME280;57706;56.326;43.882;2022-09-09T02:51:35;101143.19;;;6.61;79.24
70302;BME280;57706;56.326;43.882;2022-09-09T02:54:19;101149.72;;;6.55;79.29
70302;BME280;57706;56.326;43.882;2022-09-09T02:56:52;101149.50;;;6.58;79.14
70302;BME280;57706;56.326;43.882;2022-09-09T02:59:25;101160.69;;;6.60;79.00
70302;BME280;57706;56.326;43.882;2022-09-09T03:01:53;101161.38;;;6.63;78.78
70302;BME280;57706;56.326;43.882;2022-09-09T03:04:19;101162.69;;;6.57;78.73
70302;BME280;57706;56.326;43.882;2022-09-09T03:06:46;101163.28;;;6.60;78.45
70302;BME280;57706;56.326;43.882;2022-09-09T03:09:17;101166.59;;;6.63;78.37
70302;BME280;57706;56.326;43.882;2022-09-09T03:11:43;101168.00;;;6.55;78.39
70302;BME280;57706;56.326;43.882;2022-09-09T03:14:10;101170.53;;;6.57;78.22
70302;BME280;57706;56.326;43.882;2022-09-09T03:16:37;101166.47;;;6.53;78.40
70302;BME280;57706;56.326;43.882;2022-09-09T03:19:03;101171.09;;;6.49;78.31
70302;BME280;57706;56.326;43.882;2022-09-09T03:21:29;101181.88;;;6.44;78.26
70302;BME280;57706;56.326;43.882;2022-09-09T03:23:55;101183.44;;;6.36;78.55
70302;BME280;57706;56.326;43.882;2022-09-09T03:26:21;101184.34;;;6.34;78.45
70302;BME280;57706;56.326;43.882;2022-09-09T03:28:47;101187.19;;;6.31;78.68
70302;BME280;57706;56.326;43.882;2022-09-09T03:31:32;101189.81;;;6.31;78.03
70302;BME280;57706;56.326;43.882;2022-09-09T03:33:59;101190.06;;;6.28;78.48
70302;BME280;57706;56.326;43.882;2022-09-09T03:36:27;101191.47;;;6.32;78.15
70302;BME280;57706;56.326;43.882;2022-09-09T03:38:54;101196.69;;;6.32;78.12
70302;BME280;57706;56.326;43.882;2022-09-09T03:41:22;101206.69;;;6.39;78.30
70302;BME280;57706;56.326;43.882;2022-09-09T03:43:50;101200.78;;;6.48;77.80
70302;BME280;57706;56.326;43.882;2022-09-09T03:46:18;101209.31;;;6.50;77.38
70302;BME280;57706;56.326;43.882;2022-09-09T03:48:44;101206.84;;;6.49;77.03
70302;BME280;57706;56.326;43.882;2022-09-09T03:51:10;101208.59;;;6.48;77.11
70302;BME280;57706;56.326;43.882;2022-09-09T03:53:36;101213.47;;;6.41;77.00
70302;BME280;57706;56.326;43.882;2022-09-09T03:56:05;101218.78;;;6.40;77.02
70302;BME280;57706;56.326;43.882;2022-09-09T03:58:36;101222.44;;;6.26;77.62
70302;BME280;57706;56.326;43.882;2022-09-09T04:01:10;101216.25;;;6.27;77.59
70302;BME280;57706;56.326;43.882;2022-09-09T04:03:40;101222.06;;;6.19;77.43
70302;BME280;57706;56.326;43.882;2022-09-09T04:06:09;101220.88;;;6.23;77.78
70302;BME280;57706;56.326;43.882;2022-09-09T04:08:36;101228.47;;;6.26;77.58
70302;BME280;57706;56.326;43.882;2022-09-09T04:11:04;101235.38;;;6.27;77.55
70302;BME280;57706;56.326;43.882;2022-09-09T04:13:37;101234.28;;;6.30;77.38
70302;BME280;57706;56.326;43.882;2022-09-09T04:16:07;101236.00;;;6.31;77.16
70302;BME280;57706;56.326;43.882;2022-09-09T04:18:36;101234.69;;;6.37;77.27
70302;BME280;57706;56.326;43.882;2022-09-09T04:21:02;101239.91;;;6.37;76.89
70302;BME280;57706;56.326;43.882;2022-09-09T04:23:33;101246.69;;;6.39;76.87
70302;BME280;57706;56.326;43.882;2022-09-09T04:26:01;101252.03;;;6.38;77.00
70302;BME280;57706;56.326;43.882;2022-09-09T04:28:30;101246.09;;;6.36;77.43
70302;BME280;57706;56.326;43.882;2022-09-09T04:31:03;101247.06;;;6.46;76.83
70302;BME280;57706;56.326;43.882;2022-09-09T04:33:30;101254.66;;;6.49;77.07
70302;BME280;57706;56.326;43.882;2022-09-09T04:35:56;101254.97;;;6.69;76.11
70302;BME280;57706;56.326;43.882;2022-09-09T04:38:24;101264.22;;;6.84;75.85
70302;BME280;57706;56.326;43.882;2022-09-09T04:40:52;101264.38;;;6.94;75.07
70302;BME280;57706;56.326;43.882;2022-09-09T04:43:21;101257.63;;;7.03;75.15
70302;BME280;57706;56.326;43.882;2022-09-09T04:45:49;101261.41;;;7.22;74.46
70302;BME280;57706;56.326;43.882;2022-09-09T04:48:15;101257.28;;;7.30;74.14
70302;BME280;57706;56.326;43.882;2022-09-09T04:50:41;101257.50;;;7.39;73.99
70302;BME280;57706;56.326;43.882;2022-09-09T04:53:10;101265.47;;;7.37;74.06
70302;BME280;57706;56.326;43.882;2022-09-09T04:55:37;101270.09;;;7.56;73.38
70302;BME280;57706;56.326;43.882;2022-09-09T04:58:04;101262.09;;;7.69;73.07
70302;BME280;57706;56.326;43.882;2022-09-09T05:00:32;101268.72;;;7.85;72.47
70302;BME280;57706;56.326;43.882;2022-09-09T05:02:58;101262.50;;;7.97;71.54
70302;BME280;57706;56.326;43.882;2022-09-09T05:05:45;101264.44;;;8.17;70.83
70302;BME280;57706;56.326;43.882;2022-09-09T05:08:11;101275.97;;;8.58;69.46
70302;BME280;57706;56.326;43.882;2022-09-09T05:10:38;101272.88;;;8.74;68.63
70302;BME280;57706;56.326;43.882;2022-09-09T05:13:04;101275.13;;;9.10;67.03
70302;BME280;57706;56.326;43.882;2022-09-09T05:15:32;101271.94;;;9.38;66.23
70302;BME280;57706;56.326;43.882;2022-09-09T05:18:01;101273.97;;;9.75;64.90
70302;BME280;57706;56.326;43.882;2022-09-09T05:20:29;101270.94;;;9.70;64.89
70302;BME280;57706;56.326;43.882;2022-09-09T05:22:56;101277.00;;;9.60;64.55
70302;BME280;57706;56.326;43.882;2022-09-09T05:25:25;101276.84;;;9.21;66.21
70302;BME280;57706;56.326;43.882;2022-09-09T05:27:53;101284.28;;;9.16;66.00
70302;BME280;57706;56.326;43.882;2022-09-09T05:30:20;101272.63;;;9.08;65.90
70302;BME280;57706;56.326;43.882;2022-09-09T05:33:05;101280.44;;;9.20;67.01
70302;BME280;57706;56.326;43.882;2022-09-09T05:35:32;101277.72;;;9.31;66.42
70302;BME280;57706;56.326;43.882;2022-09-09T05:37:59;101285.75;;;9.40;66.19
70302;BME280;57706;56.326;43.882;2022-09-09T05:40:26;101287.16;;;9.44;65.98
70302;BME280;57706;56.326;43.882;2022-09-09T05:42:52;101297.66;;;9.54;65.60
70302;BME280;57706;56.326;43.882;2022-09-09T05:45:19;101286.94;;;9.67;65.59
70302;BME280;57706;56.326;43.882;2022-09-09T05:47:51;101291.66;;;9.73;64.74
70302;BME280;57706;56.326;43.882;2022-09-09T05:50:19;101296.75;;;9.64;64.15
70302;BME280;57706;56.326;43.882;2022-09-09T05:52:44;101289.47;;;9.78;63.78
70302;BME280;57706;56.326;43.882;2022-09-09T05:55:10;101296.97;;;9.93;62.93
70302;BME280;57706;56.326;43.882;2022-09-09T05:57:36;101299.72;;;10.11;62.92
70302;BME280;57706;56.326;43.882;2022-09-09T06:00:02;101301.69;;;10.18;62.52
70302;BME280;57706;56.326;43.882;2022-09-09T06:02:39;101301.97;;;10.35;60.78
70302;BME280;57706;56.326;43.882;2022-09-09T06:05:25;101303.06;;;10.23;59.88
70302;BME280;57706;56.326;43.882;2022-09-09T06:07:53;101300.44;;;10.52;60.65
70302;BME280;57706;56.326;43.882;2022-09-09T06:10:19;101308.03;;;10.65;61.13
70302;BME280;57706;56.326;43.882;2022-09-09T06:12:45;101304.91;;;10.99;59.16
70302;BME280;57706;56.326;43.882;2022-09-09T06:15:11;101309.31;;;11.19;57.43
70302;BME280;57706;56.326;43.882;2022-09-09T06:17:38;101310.06;;;11.39;57.22
70302;BME280;57706;56.326;43.882;2022-09-09T06:20:05;101312.22;;;11.53;56.69
70302;BME280;57706;56.326;43.882;2022-09-09T06:22:31;101318.13;;;11.65;55.60
70302;BME280;57706;56.326;43.882;2022-09-09T06:24:57;101312.94;;;12.20;55.50
70302;BME280;57706;56.326;43.882;2022-09-09T06:27:23;101313.47;;;12.86;53.50
70302;BME280;57706;56.326;43.882;2022-09-09T06:29:49;101314.19;;;12.97;51.66
70302;BME280;57706;56.326;43.882;2022-09-09T06:32:16;101316.94;;;13.48;51.21
70302;BME280;57706;56.326;43.882;2022-09-09T06:34:43;101324.22;;;14.22;49.41
70302;BME280;57706;56.326;43.882;2022-09-09T06:37:09;101333.31;;;15.11;47.01
70302;BME280;57706;56.326;43.882;2022-09-09T06:39:44;101324.13;;;16.25;44.08
70302;BME280;57706;56.326;43.882;2022-09-09T06:42:10;101321.50;;;16.63;41.30
70302;BME280;57706;56.326;43.882;2022-09-09T06:44:48;101327.06;;;17.22;41.38
70302;BME280;57706;56.326;43.882;2022-09-09T06:47:22;101324.44;;;18.61;37.35
70302;BME280;57706;56.326;43.882;2022-09-09T06:49:48;101321.91;;;17.87;38.92
70302;BME280;57706;56.326;43.882;2022-09-09T06:52:14;101327.56;;;17.78;39.41
70302;BME280;57706;56.326;43.882;2022-09-09T06:54:40;101331.00;;;17.56;40.25
70302;BME280;57706;56.326;43.882;2022-09-09T06:57:06;101329.44;;;17.47;39.94
70302;BME280;57706;56.326;43.882;2022-09-09T06:59:33;101327.19;;;16.60;38.68
70302;BME280;57706;56.326;43.882;2022-09-09T07:02:00;101333.53;;;16.74;40.06
70302;BME280;57706;56.326;43.882;2022-09-09T07:04:27;101329.47;;;20.71;33.59
70302;BME280;57706;56.326;43.882;2022-09-09T07:06:52;101330.50;;;20.77;30.68
70302;BME280;57706;56.326;43.882;2022-09-09T07:09:22;101329.47;;;18.49;35.57
70302;BME280;57706;56.326;43.882;2022-09-09T07:11:51;101334.47;;;16.97;37.64
70302;BME280;57706;56.326;43.882;2022-09-09T07:14:23;101338.47;;;15.84;40.40
70302;BME280;57706;56.326;43.882;2022-09-09T07:16:54;101346.00;;;15.32;39.54
70302;BME280;57706;56.326;43.882;2022-09-09T07:19:20;101343.44;;;14.91;40.38
70302;BME280;57706;56.326;43.882;2022-09-09T07:21:49;101350.56;;;14.73;41.61
70302;BME280;57706;56.326;43.882;2022-09-09T07:24:18;101341.44;;;14.93;39.86
70302;BME280;57706;56.326;43.882;2022-09-09T07:26:45;101346.25;;;15.46;40.58
70302;BME280;57706;56.326;43.882;2022-09-09T07:29:12;101351.22;;;15.49;39.44
70302;BME280;57706;56.326;43.882;2022-09-09T07:31:41;101346.69;;;15.98;37.88
70302;BME280;57706;56.326;43.882;2022-09-09T07:34:11;101348.38;;;17.74;36.00
70302;BME280;57706;56.326;43.882;2022-09-09T07:36:40;101354.00;;;19.72;32.16
70302;BME280;57706;56.326;43.882;2022-09-09T07:39:11;101351.69;;;18.63;33.09
70302;BME280;57706;56.326;43.882;2022-09-09T07:41:56;101352.19;;;19.37;31.95
70302;BME280;57706;56.326;43.882;2022-09-09T07:44:24;101355.47;;;21.89;28.98
70302;BME280;57706;56.326;43.882;2022-09-09T07:47:01;101356.38;;;20.49;30.36
70302;BME280;57706;56.326;43.882;2022-09-09T07:49:33;101357.63;;;20.47;29.53
70302;BME280;57706;56.326;43.882;2022-09-09T07:52:02;101355.66;;;19.87;28.16
70302;BME280;57706;56.326;43.882;2022-09-09T07:54:29;101357.22;;;20.23;30.04
70302;BME280;57706;56.326;43.882;2022-09-09T07:56:55;101367.03;;;20.29;28.66
70302;BME280;57706;56.326;43.882;2022-09-09T07:59:23;101357.16;;;21.77;28.12
70302;BME280;57706;56.326;43.882;2022-09-09T08:02:08;101357.66;;;23.57;27.11
70302;BME280;57706;56.326;43.882;2022-09-09T08:04:35;101371.81;;;24.61;24.34
70302;BME280;57706;56.326;43.882;2022-09-09T08:07:02;101371.13;;;22.94;26.15
70302;BME280;57706;56.326;43.882;2022-09-09T08:09:32;101371.00;;;22.06;26.27
70302;BME280;57706;56.326;43.882;2022-09-09T08:12:17;101371.25;;;24.47;24.96
70302;BME280;57706;56.326;43.882;2022-09-09T08:14:44;101366.22;;;25.22;24.06
70302;BME280;57706;56.326;43.882;2022-09-09T08:17:10;101370.56;;;25.52;23.67
70302;BME280;57706;56.326;43.882;2022-09-09T08:19:36;101371.34;;;26.97;21.56
70302;BME280;57706;56.326;43.882;2022-09-09T08:22:07;101378.00;;;25.74;22.04
70302;BME280;57706;56.326;43.882;2022-09-09T08:24:34;101370.09;;;28.75;19.01
70302;BME280;57706;56.326;43.882;2022-09-09T08:27:01;101370.41;;;26.34;20.97
70302;BME280;57706;56.326;43.882;2022-09-09T08:29:28;101371.84;;;25.09;23.05
70302;BME280;57706;56.326;43.882;2022-09-09T08:31:56;101383.63;;;22.81;25.86
70302;BME280;57706;56.326;43.882;2022-09-09T08:34:24;101388.38;;;25.53;22.05
70302;BME280;57706;56.326;43.882;2022-09-09T08:36:53;101375.63;;;30.63;17.97
70302;BME280;57706;56.326;43.882;2022-09-09T08:39:24;101369.00;;;35.45;13.96
70302;BME280;57706;56.326;43.882;2022-09-09T08:44:57;101361.56;;;36.95;13.13
70302;BME280;57706;56.326;43.882;2022-09-09T08:50:35;101372.56;;;26.49;20.16
70302;BME280;57706;56.326;43.882;2022-09-09T08:53:28;101366.84;;;25.82;21.64
70302;BME280;57706;56.326;43.882;2022-09-09T08:56:21;101377.31;;;24.00;23.47
70302;BME280;57706;56.326;43.882;2022-09-09T08:58:53;101368.56;;;26.06;22.00
70302;BME280;57706;56.326;43.882;2022-09-09T09:12:41;101381.88;;;21.65;27.06
70302;BME280;57706;56.326;43.882;2022-09-09T09:15:21;101373.81;;;21.26;26.53
70302;BME280;57706;56.326;43.882;2022-09-09T09:17:50;101381.41;;;21.16;27.46
70302;BME280;57706;56.326;43.882;2022-09-09T09:20:29;101379.63;;;20.89;26.96
70302;BME280;57706;56.326;43.882;2022-09-09T09:23:02;101382.47;;;20.81;26.80
70302;BME280;57706;56.326;43.882;2022-09-09T09:25:35;101380.03;;;20.53;28.26
70302;BME280;57706;56.326;43.882;2022-09-09T09:28:17;101385.97;;;20.61;28.68
70302;BME280;57706;56.326;43.882;2022-09-09T09:30:55;101388.22;;;20.51;28.20
70302;BME280;57706;56.326;43.882;2022-09-09T09:33:49;101387.66;;;20.89;27.54
70302;BME280;57706;56.326;43.882;2022-09-09T09:36:17;101386.56;;;20.36;28.92
70302;BME280;57706;56.326;43.882;2022-09-09T09:38:57;101385.69;;;20.02;29.35
70302;BME280;57706;56.326;43.882;2022-09-09T09:41:38;101383.97;;;19.88;29.22
70302;BME280;57706;56.326;43.882;2022-09-09T09:44:25;101382.81;;;19.48;30.09
70302;BME280;57706;56.326;43.882;2022-09-09T09:46:52;101387.56;;;18.89;31.63
70302;BME280;57706;56.326;43.882;2022-09-09T09:49:18;101389.22;;;18.47;32.20
70302;BME280;57706;56.326;43.882;2022-09-09T09:51:44;101387.47;;;18.32;32.84
70302;BME280;57706;56.326;43.882;2022-09-09T09:54:37;101399.38;;;18.36;33.39
70302;BME280;57706;56.326;43.882;2022-09-09T09:57:11;101399.09;;;19.67;31.69
70302;BME280;57706;56.326;43.882;2022-09-09T09:59:39;101393.00;;;24.81;24.77
70302;BME280;57706;56.326;43.882;2022-09-09T10:05:21;101387.22;;;23.69;25.31
70302;BME280;57706;56.326;43.882;2022-09-09T10:10:44;101394.59;;;33.08;16.28
70302;BME280;57706;56.326;43.882;2022-09-09T10:13:19;101394.97;;;29.25;17.82
70302;BME280;57706;56.326;43.882;2022-09-09T10:29:22;101403.84;;;20.41;29.49
70302;BME280;57706;56.326;43.882;2022-09-09T10:32:08;101407.69;;;18.98;31.41
70302;BME280;57706;56.326;43.882;2022-09-09T10:42:42;101400.22;;;19.09;34.64
70302;BME280;57706;56.326;43.882;2022-09-09T10:45:23;101416.44;;;19.49;34.15
70302;BME280;57706;56.326;43.882;2022-09-09T10:48:04;101407.28;;;26.17;25.36
70302;BME280;57706;56.326;43.882;2022-09-09T10:50:45;101410.09;;;30.05;19.26
70302;BME280;57706;56.326;43.882;2022-09-09T10:56:06;101399.78;;;27.49;22.01
70302;BME280;57706;56.326;43.882;2022-09-09T10:59:26;101408.44;;;24.98;24.25
70302;BME280;57706;56.326;43.882;2022-09-09T11:01:35;101407.03;;;22.03;27.06
70302;BME280;57706;56.326;43.882;2022-09-09T11:04:16;101408.81;;;20.84;29.70
70302;BME280;57706;56.326;43.882;2022-09-09T11:06:47;101408.09;;;19.66;31.77
70302;BME280;57706;56.326;43.882;2022-09-09T11:09:19;101414.72;;;19.35;33.18
70302;BME280;57706;56.326;43.882;2022-09-09T11:11:55;101412.06;;;27.17;22.68
70302;BME280;57706;56.326;43.882;2022-09-09T11:14:41;101399.69;;;32.36;17.99
70302;BME280;57706;56.326;43.882;2022-09-09T11:17:24;101403.13;;;36.16;14.43
70302;BME280;57706;56.326;43.882;2022-09-09T11:19:52;101395.31;;;33.38;15.66
70302;BME280;57706;56.326;43.882;2022-09-09T11:24:58;101400.09;;;31.39;17.22
70302;BME280;57706;56.326;43.882;2022-09-09T11:41:02;101396.22;;;30.85;17.03
70302;BME280;57706;56.326;43.882;2022-09-09T11:43:31;101397.84;;;29.72;18.14
70302;BME280;57706;56.326;43.882;2022-09-09T11:46:03;101391.94;;;33.66;15.51
70302;BME280;57706;56.326;43.882;2022-09-09T11:48:33;101386.50;;;34.65;14.42
70302;BME280;57706;56.326;43.882;2022-09-09T11:51:02;101385.66;;;33.07;16.05
70302;BME280;57706;56.326;43.882;2022-09-09T11:53:29;101393.50;;;29.65;18.50
70302;BME280;57706;56.326;43.882;2022-09-09T11:56:07;101392.78;;;33.22;15.80
70302;BME280;57706;56.326;43.882;2022-09-09T11:58:43;101393.78;;;29.00;19.22
70302;BME280;57706;56.326;43.882;2022-09-09T12:01:37;101389.72;;;30.65;17.69
70302;BME280;57706;56.326;43.882;2022-09-09T12:06:59;101402.69;;;29.54;18.36
70302;BME280;57706;56.326;43.882;2022-09-09T12:09:44;101391.69;;;34.48;14.22
70302;BME280;57706;56.326;43.882;2022-09-09T12:15:01;101391.00;;;26.23;21.58
70302;BME280;57706;56.326;43.882;2022-09-09T12:17:31;101395.00;;;23.89;24.46
70302;BME280;57706;56.326;43.882;2022-09-09T12:20:19;101398.72;;;21.66;27.16
70302;BME280;57706;56.326;43.882;2022-09-09T12:27:57;101416.94;;;17.33;39.64
70302;BME280;57706;56.326;43.882;2022-09-09T12:31:05;101421.91;;;16.98;40.76
70302;BME280;57706;56.326;43.882;2022-09-09T12:33:35;101416.41;;;16.61;42.39
70302;BME280;57706;56.326;43.882;2022-09-09T12:36:03;101421.25;;;16.26;42.82
70302;BME280;57706;56.326;43.882;2022-09-09T12:38:39;101420.53;;;16.09;43.07
70302;BME280;57706;56.326;43.882;2022-09-09T12:41:05;101419.44;;;16.27;42.60
70302;BME280;57706;56.326;43.882;2022-09-09T12:43:31;101419.66;;;16.48;42.30
70302;BME280;57706;56.326;43.882;2022-09-09T12:46:00;101412.66;;;16.24;42.70
70302;BME280;57706;56.326;43.882;2022-09-09T12:48:36;101414.22;;;16.65;42.41
70302;BME280;57706;56.326;43.882;2022-09-09T12:51:19;101399.06;;;23.79;30.62
70302;BME280;57706;56.326;43.882;2022-09-09T12:53:46;101406.97;;;26.99;25.24
70302;BME280;57706;56.326;43.882;2022-09-09T12:56:20;101410.28;;;22.95;29.24
70302;BME280;57706;56.326;43.882;2022-09-09T12:58:49;101409.69;;;24.47;28.43
70302;BME280;57706;56.326;43.882;2022-09-09T13:01:30;101400.25;;;22.33;29.95
70302;BME280;57706;56.326;43.882;2022-09-09T13:03:58;101403.34;;;20.03;33.81
70302;BME280;57706;56.326;43.882;2022-09-09T13:06:31;101408.81;;;18.61;36.76
70302;BME280;57706;56.326;43.882;2022-09-09T13:09:16;101402.69;;;25.18;27.55
70302;BME280;57706;56.326;43.882;2022-09-09T13:11:45;101407.09;;;29.12;22.32
70302;BME280;57706;56.326;43.882;2022-09-09T13:14:18;101394.66;;;30.32;19.84
70302;BME280;57706;56.326;43.882;2022-09-09T13:16:57;101398.94;;;31.51;18.88
70302;BME280;57706;56.326;43.882;2022-09-09T13:19:23;101397.81;;;30.96;19.26
70302;BME280;57706;56.326;43.882;2022-09-09T13:22:35;101390.31;;;30.36;18.42
70302;BME280;57706;56.326;43.882;2022-09-09T13:25:26;101405.22;;;31.46;17.07
70302;BME280;57706;56.326;43.882;2022-09-09T13:28:03;101396.28;;;32.20;16.83
70302;BME280;57706;56.326;43.882;2022-09-09T13:30:35;101391.06;;;32.59;16.72
70302;BME280;57706;56.326;43.882;2022-09-09T13:35:36;101387.47;;;31.03;17.33
70302;BME280;57706;56.326;43.882;2022-09-09T13:38:15;101395.00;;;31.17;17.33
70302;BME280;57706;56.326;43.882;2022-09-09T13:43:22;101397.31;;;23.36;25.85
70302;BME280;57706;56.326;43.882;2022-09-09T13:46:03;101400.56;;;20.99;29.95
70302;BME280;57706;56.326;43.882;2022-09-09T13:48:30;101398.59;;;24.68;25.69
70302;BME280;57706;56.326;43.882;2022-09-09T13:51:00;101392.91;;;24.88;24.60
70302;BME280;57706;56.326;43.882;2022-09-09T13:53:27;101391.56;;;23.14;27.22
70302;BME280;57706;56.326;43.882;2022-09-09T13:55:53;101390.84;;;21.91;28.64
70302;BME280;57706;56.326;43.882;2022-09-09T13:58:19;101391.09;;;20.43;31.09
70302;BME280;57706;56.326;43.882;2022-09-09T14:00:47;101390.00;;;19.54;32.42
70302;BME280;57706;56.326;43.882;2022-09-09T14:03:13;101393.56;;;18.48;34.16
70302;BME280;57706;56.326;43.882;2022-09-09T14:05:39;101394.19;;;18.50;34.34
70302;BME280;57706;56.326;43.882;2022-09-09T14:08:07;101394.94;;;18.43;34.55
70302;BME280;57706;56.326;43.882;2022-09-09T14:10:33;101391.16;;;17.94;35.50
70302;BME280;57706;56.326;43.882;2022-09-09T14:13:03;101402.16;;;16.77;38.19
70302;BME280;57706;56.326;43.882;2022-09-09T14:15:29;101393.72;;;16.74;37.96
70302;BME280;57706;56.326;43.882;2022-09-09T14:17:54;101401.94;;;16.17;39.57
70302;BME280;57706;56.326;43.882;2022-09-09T14:20:20;101409.94;;;16.09;40.47
70302;BME280;57706;56.326;43.882;2022-09-09T14:22:46;101407.16;;;15.54;40.94
70302;BME280;57706;56.326;43.882;2022-09-09T14:25:12;101404.25;;;15.32;41.64
70302;BME280;57706;56.326;43.882;2022-09-09T14:27:41;101414.53;;;15.02;42.59
70302;BME280;57706;56.326;43.882;2022-09-09T14:30:09;101410.38;;;14.50;42.91
70302;BME280;57706;56.326;43.882;2022-09-09T14:32:35;101409.72;;;13.88;44.74
70302;BME280;57706;56.326;43.882;2022-09-09T14:35:00;101414.09;;;13.44;45.69
70302;BME280;57706;56.326;43.882;2022-09-09T14:37:28;101422.19;;;13.16;47.55
70302;BME280;57706;56.326;43.882;2022-09-09T14:39:57;101418.09;;;13.22;48.88
70302;BME280;57706;56.326;43.882;2022-09-09T14:42:23;101419.53;;;13.69;48.72
70302;BME280;57706;56.326;43.882;2022-09-09T14:44:48;101419.03;;;14.00;48.05
70302;BME280;57706;56.326;43.882;2022-09-09T14:47:14;101426.00;;;14.18;47.34
70302;BME280;57706;56.326;43.882;2022-09-09T14:49:40;101418.88;;;14.18;47.73
70302;BME280;57706;56.326;43.882;2022-09-09T14:52:07;101425.16;;;13.66;48.71
70302;BME280;57706;56.326;43.882;2022-09-09T14:54:34;101421.59;;;13.04;50.33
70302;BME280;57706;56.326;43.882;2022-09-09T14:57:00;101428.16;;;12.82;51.37
70302;BME280;57706;56.326;43.882;2022-09-09T14:59:26;101429.25;;;12.53;50.86
70302;BME280;57706;56.326;43.882;2022-09-09T15:01:52;101433.63;;;12.16;52.31
70302;BME280;57706;56.326;43.882;2022-09-09T15:04:18;101437.53;;;11.74;53.56
70302;BME280;57706;56.326;43.882;2022-09-09T15:06:45;101438.03;;;11.40;54.42
70302;BME280;57706;56.326;43.882;2022-09-09T15:09:14;101448.06;;;11.07;55.39
70302;BME280;57706;56.326;43.882;2022-09-09T15:11:41;101442.97;;;10.76;56.92